LBSF/SOF METAR and TAF weather

Enter ICAO airport designator
Station Type Date Time Source
LBSF METAR 2019/10/15 18:30 UTC NOAA

LBSF 151830Z 13007KT CAVOK 15/05 Q1018 NOSIG


Station Type Date Time Source
LBSF Decoded METAR 2019/10/15 18:30 UTC NOAA

Sofia Observ. , Bulgaria (LBSF) 42-39N 023-23E 595M
Oct 15, 2019 - 02:30 PM EDT / 2019.10.15 1830 UTC
Wind: from the SE (130 degrees) at 8 MPH (7 KT):0
Visibility: greater than 7 mile(s):0
Temperature: 59 F (15 C)
Dew Point: 41 F (5 C)
Relative Humidity: 51%
Pressure (altimeter): 30.06 in. Hg (1018 hPa)
ob: LBSF 151830Z 13007KT CAVOK 15/05 Q1018 NOSIG
cycle: 18

Station Type Date Time Source
LBSF TAF 2019/10/15 18:18 UTC NOAA

TAF LBSF 151700Z 1518/1618 VRB04KT CAVOK
BECMG 1600/1602 3000 BR
TEMPO 1602/1606 1200 BR PROB30 1602/1605 0600 BCFG SCT002
BECMG 1606/1608 CAVOK

Example: see airport list